Time;durP1;ratioP1;P1;durP2;ratioP2;P2;SDS_P1;SDS_P2;PMS_P1;PMS_P2;Temp;Humidity;BMP_temperature;BMP_pressure;BME280_temperature;BME280_humidity;BME280_pressure;Samples;Min_cycle;Max_cycle;Signal;HPM_P1;HPM_P2
2022/05/30 00:01:23;;;;;;;3.65;1.50;;;12.20;99.90;;;12.29;91.76;100636.97;5206097;28;20045;-72
2022/05/30 00:03:55;;;;;;;2.47;1.63;;;12.20;99.90;;;12.29;91.70;100639.59;5207187;28;20469;-71
2022/05/30 00:06:29;;;;;;;3.60;1.70;;;12.20;99.90;;;12.26;91.58;100636.88;5205690;28;20053;-70
2022/05/30 00:09:01;;;;;;;4.50;1.83;;;12.10;99.90;;;12.26;91.44;100636.88;5205920;28;20049;-70
2022/05/30 00:11:33;;;;;;;1.95;1.40;;;12.10;99.90;;;12.23;91.54;100637.69;5205942;28;20053;-71
2022/05/30 00:14:05;;;;;;;2.38;1.55;;;12.10;99.90;;;12.22;91.77;100631.59;5205571;28;20062;-72
2022/05/30 00:16:38;;;;;;;2.88;1.40;;;12.10;99.90;;;12.22;91.81;100626.38;5205891;28;20478;-71
2022/05/30 00:19:10;;;;;;;3.50;1.50;;;12.10;99.90;;;12.20;91.90;100628.06;5205206;28;20045;-71
2022/05/30 00:21:44;;;;;;;2.78;1.42;;;12.10;99.90;;;12.18;92.00;100634.97;5205832;28;20060;-71
2022/05/30 00:24:16;;;;;;;3.33;1.52;;;12.10;99.90;;;12.18;92.24;100634.09;5205722;28;20428;-71
2022/05/30 00:26:48;;;;;;;2.30;1.63;;;12.10;99.90;;;12.17;92.14;100638.44;5205781;28;20049;-72
2022/05/30 00:29:20;;;;;;;2.80;1.48;;;12.10;99.90;;;12.16;92.24;100634.06;5205633;28;20051;-71
2022/05/30 00:31:53;;;;;;;1.60;1.42;;;12.00;99.90;;;12.17;92.79;100637.53;5205642;28;20059;-71
2022/05/30 00:34:26;;;;;;;1.88;1.40;;;12.00;99.90;;;12.15;92.57;100640.13;5205713;28;20057;-71
2022/05/30 00:36:58;;;;;;;3.78;1.83;;;12.10;99.90;;;12.15;92.57;100640.13;5205619;28;20045;-72
2022/05/30 00:39:31;;;;;;;4.82;2.10;;;12.00;99.90;;;12.13;92.59;100636.59;5205169;28;20046;-72
2022/05/30 00:42:09;;;;;;;2.72;1.60;;;12.00;99.90;;;12.09;92.92;100632.13;5206380;28;20491;-71
2022/05/30 00:44:41;;;;;;;2.65;1.58;;;12.00;99.90;;;12.08;92.81;100626.88;5205554;28;20132;-71
2022/05/30 00:47:16;;;;;;;2.72;2.10;;;12.00;99.90;;;12.05;92.69;100619.81;5205540;28;20046;-72
2022/05/30 00:49:50;;;;;;;2.75;1.85;;;11.90;99.90;;;12.05;93.30;100622.44;5205268;28;20084;-72
2022/05/30 00:52:26;;;;;;;2.70;1.67;;;11.90;99.90;;;12.06;93.44;100621.63;5205591;28;20056;-71
2022/05/30 00:55:04;;;;;;;2.85;1.67;;;11.90;99.90;;;12.06;93.35;100620.69;5205282;28;20041;-71
2022/05/30 00:57:38;;;;;;;2.53;1.63;;;11.90;99.90;;;12.05;93.57;100616.31;5205567;28;20050;-73
2022/05/30 01:00:17;;;;;;;2.60;1.58;;;11.90;99.90;;;12.04;93.47;100619.78;5204938;28;20138;-72
2022/05/30 01:06:30;;;;;;;3.50;1.80;;;12.00;99.90;;;12.03;93.50;100620.63;5205093;28;20090;-71
2022/05/30 01:08:34;;;;;;;2.38;1.60;;;11.90;99.90;;;12.02;93.60;100619.75;5177894;28;20103;-70
2022/05/30 01:11:06;;;;;;;2.78;2.30;;;11.90;99.90;;;12.00;93.94;100624.06;5209045;28;20049;-71
2022/05/30 01:13:40;;;;;;;3.85;1.70;;;11.90;99.90;;;11.98;93.79;100620.50;5208742;28;20049;-72
2022/05/30 01:16:12;;;;;;;6.07;1.75;;;11.90;99.90;;;11.96;93.15;100622.19;5208557;28;20053;-71
2022/05/30 01:18:52;;;;;;;4.57;1.92;;;11.90;99.90;;;11.97;93.11;100617.84;5208524;28;20509;-71
2022/05/30 01:21:43;;;;;;;2.83;2.10;;;11.80;99.90;;;11.95;92.96;100615.22;5208887;28;20143;-72
2022/05/30 01:24:31;;;;;;;3.20;1.73;;;11.80;99.90;;;11.94;93.00;100610.84;5209058;28;20406;-71
2022/05/30 01:27:17;;;;;;;2.95;1.63;;;11.80;99.90;;;11.92;92.70;100615.13;5208895;28;20056;-72
2022/05/30 01:29:55;;;;;;;2.95;1.73;;;11.80;99.90;;;11.94;92.79;100613.44;5208737;28;20378;-71
2022/05/30 01:32:27;;;;;;;3.40;1.90;;;11.80;99.90;;;11.91;92.54;100609.00;5208365;28;20057;-72
2022/05/30 01:34:59;;;;;;;3.55;1.85;;;11.80;99.90;;;11.91;92.43;100608.13;5208703;28;20046;-71
2022/05/30 01:37:31;;;;;;;3.35;2.08;;;11.80;99.90;;;11.86;92.32;100605.38;5208243;28;20052;-72
2022/05/30 01:40:03;;;;;;;4.15;1.98;;;11.80;99.90;;;11.87;92.13;100603.69;5208348;28;20049;-72
2022/05/30 01:42:36;;;;;;;3.20;2.10;;;11.80;99.90;;;11.83;91.20;100599.22;5208398;28;20541;-73
2022/05/30 01:45:10;;;;;;;2.85;1.80;;;11.70;99.90;;;11.81;91.29;100595.69;5208530;28;20060;-72
2022/05/30 01:47:42;;;;;;;4.30;1.83;;;11.70;99.90;;;11.79;91.19;100597.31;5208022;28;20325;-71
2022/05/30 01:50:14;;;;;;;4.25;2.00;;;11.70;99.90;;;11.79;90.98;100597.31;5208308;28;20498;-72
2022/05/30 01:52:46;;;;;;;3.45;1.95;;;11.70;99.90;;;11.79;91.28;100597.31;5208294;28;20053;-71
2022/05/30 01:55:18;;;;;;;2.72;1.90;;;11.70;99.90;;;11.78;91.71;100585.09;5208333;28;20045;-72
2022/05/30 01:57:51;;;;;;;2.55;1.58;;;11.70;99.90;;;11.78;91.74;100595.56;5208206;28;20049;-71
2022/05/30 02:00:25;;;;;;;2.63;1.52;;;11.70;99.90;;;11.79;92.12;100594.72;5208070;28;20057;-70
2022/05/30 02:02:57;;;;;;;2.95;1.65;;;11.70;99.90;;;11.80;92.09;100591.25;5208108;28;20122;-71
2022/05/30 02:05:30;;;;;;;3.88;2.03;;;11.70;99.90;;;11.78;92.19;100590.34;5208093;28;20409;-70
2022/05/30 02:08:02;;;;;;;2.67;1.90;;;11.70;99.90;;;11.74;92.36;100583.28;5208040;28;20049;-70
2022/05/30 02:10:36;;;;;;;2.80;1.85;;;11.70;99.90;;;11.72;92.64;100584.94;5207859;28;20057;-72
2022/05/30 02:13:08;;;;;;;2.13;1.63;;;11.60;99.90;;;11.69;92.71;100581.41;5207731;28;20048;-72
2022/05/30 02:18:33;;;;;;;2.65;1.73;;;11.60;99.90;;;11.67;93.35;100577.91;5181706;28;20081;-70
2022/05/30 02:21:05;;;;;;;3.25;1.73;;;11.60;99.90;;;11.66;93.82;100576.09;5207628;28;20046;-71
2022/05/30 02:23:37;;;;;;;2.75;1.70;;;11.60;99.90;;;11.65;93.69;100579.56;5207436;28;20046;-71
2022/05/30 02:26:09;;;;;;;3.72;2.10;;;11.60;99.90;;;11.63;93.77;100577.75;5207936;28;20053;-71
2022/05/30 02:28:41;;;;;;;3.90;2.00;;;11.60;99.90;;;11.62;94.05;100587.31;5207530;28;20049;-71
2022/05/30 02:31:15;;;;;;;5.20;1.90;;;11.60;99.90;;;11.61;93.94;100585.56;5207582;28;20045;-71
2022/05/30 02:36:40;;;;;;;2.53;1.73;;;11.50;99.90;;;11.54;93.75;100575.78;5207319;28;20060;-71
2022/05/30 02:39:14;;;;;;;3.40;1.92;;;11.50;99.90;;;11.51;93.43;100570.47;5207243;28;20042;-72
2022/05/30 02:41:47;;;;;;;2.85;1.95;;;11.50;99.90;;;11.45;92.95;100570.31;5207064;28;20046;-71
2022/05/30 02:44:22;;;;;;;4.32;2.30;;;11.40;99.90;;;11.41;92.91;100568.47;5207026;28;20049;-71
2022/05/30 02:46:58;;;;;;;2.95;1.90;;;11.30;99.90;;;11.38;92.91;100570.97;5207308;28;20072;-71
2022/05/30 02:49:30;;;;;;;3.42;1.80;;;11.30;99.90;;;11.36;92.44;100577.88;5207218;28;20056;-71
2022/05/30 02:52:03;;;;;;;4.35;2.22;;;11.30;99.90;;;11.34;92.57;100576.94;5207178;28;20049;-71
2022/05/30 02:54:35;;;;;;;4.25;2.22;;;11.30;99.90;;;11.31;92.62;100566.44;5207161;28;20079;-72
2022/05/30 02:57:08;;;;;;;3.22;1.73;;;11.30;99.90;;;11.28;92.51;100571.53;5206952;28;20076;-71
2022/05/30 02:59:40;;;;;;;2.25;1.73;;;11.20;99.90;;;11.24;92.71;100567.97;5206829;28;20537;-72
2022/05/30 03:02:13;;;;;;;3.20;1.90;;;11.20;99.90;;;11.22;92.66;100560.97;5206887;28;20482;-71
2022/05/30 03:04:45;;;;;;;2.55;1.67;;;11.20;99.90;;;11.20;92.61;100573.06;5206913;28;20049;-71
2022/05/30 03:07:17;;;;;;;2.85;1.92;;;11.10;99.90;;;11.17;92.57;100570.38;5206913;28;20502;-71
2022/05/30 03:09:49;;;;;;;2.58;1.58;;;11.10;99.90;;;11.12;92.24;100578.94;5206807;28;20052;-70
2022/05/30 03:12:21;;;;;;;4.05;2.10;;;11.10;99.90;;;11.07;92.12;100569.22;5206711;28;20399;-72
2022/05/30 03:14:54;;;;;;;3.85;1.90;;;11.00;99.90;;;11.04;91.97;100571.75;5206800;28;20135;-71
2022/05/30 03:17:28;;;;;;;2.90;1.63;;;11.00;99.90;;;11.00;92.21;100569.88;5206479;28;20418;-71
2022/05/30 03:20:00;;;;;;;3.53;1.83;;;11.00;99.90;;;10.96;91.91;100568.91;5206587;28;20430;-71
2022/05/30 03:22:32;;;;;;;3.35;2.15;;;10.90;99.90;;;10.94;92.04;100582.72;5206635;28;20468;-72
2022/05/30 03:25:05;;;;;;;3.40;1.80;;;10.90;99.90;;;10.88;92.06;100570.38;5206313;28;20049;-72
2022/05/30 03:27:37;;;;;;;4.25;1.90;;;10.80;99.90;;;10.85;92.22;100571.19;5206450;28;20498;-71
2022/05/30 03:30:11;;;;;;;2.63;1.40;;;10.80;99.90;;;10.84;92.15;100579.84;5206129;28;20048;-71
2022/05/30 03:32:45;;;;;;;4.35;1.67;;;10.80;99.90;;;10.82;92.38;100575.41;5206571;28;20541;-72
2022/05/30 03:35:17;;;;;;;3.03;1.85;;;10.80;99.90;;;10.79;92.39;100581.44;5206421;28;20077;-70
2022/05/30 03:37:50;;;;;;;2.92;1.70;;;10.80;99.90;;;10.77;92.42;100580.50;5206310;28;20053;-71
2022/05/30 03:40:23;;;;;;;2.65;1.73;;;10.80;99.90;;;10.76;92.46;100586.56;5206088;28;20041;-71
2022/05/30 03:42:55;;;;;;;2.80;1.55;;;10.70;99.90;;;10.75;92.62;100583.88;5205991;28;20054;-71
2022/05/30 03:45:27;;;;;;;2.85;1.60;;;10.70;99.90;;;10.76;92.93;100588.28;5205970;28;20053;-71
2022/05/30 03:48:00;;;;;;;2.72;1.77;;;10.70;99.90;;;10.77;93.25;100593.56;5206238;28;20052;-72
2022/05/30 03:50:33;;;;;;;2.60;1.80;;;10.70;99.90;;;10.78;93.38;100589.22;5206043;28;20052;-71
2022/05/30 03:53:07;;;;;;;3.40;1.95;;;10.80;99.90;;;10.77;93.05;100588.34;5205842;28;20052;-71
2022/05/30 03:55:42;;;;;;;3.58;1.70;;;10.70;99.90;;;10.79;93.23;100596.19;5205961;28;20041;-71
2022/05/30 03:58:15;;;;;;;3.38;2.30;;;10.70;99.90;;;10.81;93.54;100594.50;5205751;28;20080;-72
2022/05/30 04:00:47;;;;;;;3.85;2.05;;;10.70;99.90;;;10.83;93.67;100590.25;5205711;28;20107;-72
2022/05/30 04:03:20;;;;;;;2.30;1.65;;;10.80;99.90;;;10.87;93.71;100597.31;5205954;28;20053;-71
2022/05/30 04:05:52;;;;;;;3.85;2.13;;;10.80;99.90;;;10.91;93.75;100601.78;5205887;28;20504;-71
2022/05/30 04:08:24;;;;;;;3.85;2.10;;;10.80;99.90;;;10.95;93.73;100593.19;5205941;28;20509;-73
2022/05/30 04:10:57;;;;;;;3.20;1.90;;;10.90;99.90;;;10.98;93.91;100598.53;5205836;28;20414;-71
2022/05/30 04:13:29;;;;;;;4.43;1.88;;;10.90;99.90;;;11.02;93.91;100600.41;5205857;28;20052;-72
2022/05/30 04:16:09;;;;;;;4.38;1.80;;;11.00;99.90;;;11.09;93.81;100611.91;5205866;28;20056;-70
2022/05/30 04:18:44;;;;;;;2.88;2.13;;;11.00;99.90;;;11.13;93.96;100609.41;5205592;28;20046;-71
2022/05/30 04:21:16;;;;;;;3.75;1.63;;;11.10;99.90;;;11.19;93.99;100607.81;5218043;23;20868;-68
2022/05/30 04:23:48;;;;;;;2.45;1.67;;;11.10;99.90;;;11.24;93.99;100607.13;5204838;28;20050;-68
2022/05/30 04:26:20;;;;;;;3.28;1.88;;;11.20;99.90;;;11.27;93.57;100609.81;5205416;28;20045;-69
2022/05/30 04:28:52;;;;;;;5.78;2.55;;;11.20;99.90;;;11.31;93.35;100605.56;5205398;28;20605;-68
2022/05/30 04:31:24;;;;;;;3.92;1.90;;;11.30;99.90;;;11.36;92.92;100609.19;5205909;28;20048;-68
2022/05/30 04:33:57;;;;;;;4.18;1.92;;;11.30;99.90;;;11.40;92.51;100613.66;5205296;28;20053;-69
2022/05/30 04:36:29;;;;;;;2.85;1.80;;;11.30;99.90;;;11.44;92.38;100615.53;5198670;28;20041;-68
2022/05/30 04:39:01;;;;;;;3.97;2.30;;;11.30;99.90;;;11.50;92.18;100618.31;5203658;28;20049;-68
2022/05/30 04:41:33;;;;;;;2.80;1.90;;;11.40;99.90;;;11.54;91.85;100614.94;5209370;28;20053;-72
2022/05/30 04:44:05;;;;;;;3.22;1.92;;;11.40;99.90;;;11.55;91.77;100614.09;5209533;28;20391;-68
2022/05/30 04:46:37;;;;;;;2.42;1.65;;;11.50;99.90;;;11.58;91.55;100614.16;5209371;28;20050;-68
2022/05/30 04:49:11;;;;;;;4.75;1.63;;;11.50;99.90;;;11.63;91.59;100611.69;5208888;28;20053;-69
2022/05/30 04:51:43;;;;;;;4.72;1.80;;;11.50;99.90;;;11.69;91.67;100617.97;5209329;28;20045;-69
2022/05/30 04:54:15;;;;;;;3.53;1.90;;;11.60;99.90;;;11.73;91.79;100615.44;5209204;28;20046;-69
2022/05/30 04:56:47;;;;;;;4.15;2.15;;;11.60;99.90;;;11.72;91.11;100621.50;5207754;28;20049;-69
2022/05/30 04:59:19;;;;;;;4.45;2.05;;;11.60;99.90;;;11.69;90.96;100619.69;5200071;28;20041;-68
2022/05/30 05:01:51;;;;;;;3.17;2.03;;;11.60;99.90;;;11.66;90.49;100617.88;5209258;28;20100;-69
2022/05/30 05:04:24;;;;;;;3.95;2.03;;;11.60;99.90;;;11.68;90.75;100631.00;5209265;28;20565;-69
2022/05/30 05:06:56;;;;;;;2.63;1.38;;;11.60;99.90;;;11.72;90.76;100634.56;5208916;28;20068;-68
2022/05/30 05:09:42;;;;;;;2.17;1.85;;;11.60;99.90;;;11.75;90.98;100638.16;5208758;28;20068;-69
2022/05/30 05:12:14;;;;;;;2.28;1.70;;;11.60;99.90;;;11.78;90.92;100637.34;5199246;28;20053;-68
2022/05/30 05:14:46;;;;;;;4.68;1.63;;;11.70;99.90;;;11.79;90.33;100628.66;5204576;28;20060;-69
2022/05/30 05:17:18;;;;;;;5.78;2.33;;;11.70;99.90;;;11.80;89.88;100630.41;5208925;28;20052;-68
2022/05/30 05:19:51;;;;;;;4.00;1.50;;;11.70;99.90;;;11.79;89.54;100629.53;5208329;28;20045;-68
2022/05/30 05:22:23;;;;;;;2.65;1.63;;;11.70;99.90;;;11.82;89.60;100634.00;5208662;28;20056;-69
2022/05/30 05:24:55;;;;;;;2.78;1.73;;;11.70;99.90;;;11.86;89.36;100638.47;5208839;28;20049;-68
2022/05/30 05:27:27;;;;;;;1.73;1.48;;;11.70;99.90;;;11.88;89.47;100636.78;5208643;28;20045;-69
2022/05/30 05:29:59;;;;;;;1.98;1.52;;;11.80;99.90;;;11.93;89.49;100632.56;5208220;28;20056;-69
2022/05/30 05:32:31;;;;;;;3.47;2.00;;;11.80;99.90;;;11.95;89.04;100646.56;5208552;28;20046;-70
2022/05/30 05:35:06;;;;;;;3.40;1.52;;;11.80;99.90;;;12.01;88.92;100648.44;5207391;28;20383;-69
2022/05/30 05:37:38;;;;;;;;;;;11.90;99.90;;;12.06;88.94;100660.81;5200647;28;20505;-70
2022/05/30 05:40:12;;;;;;;3.15;1.38;;;11.90;99.90;;;12.10;88.35;100660.00;5208171;28;20427;-69
2022/05/30 05:42:44;;;;;;;3.63;1.60;;;11.90;99.90;;;12.13;87.91;100652.28;5208569;28;20049;-69
2022/05/30 05:45:16;;;;;;;4.63;1.85;;;12.00;99.90;;;12.16;87.93;100657.56;5208190;28;20140;-68
2022/05/30 05:47:48;;;;;;;2.72;1.42;;;12.00;99.90;;;12.21;87.68;100660.31;5204603;28;20053;-69
2022/05/30 05:50:22;;;;;;;2.72;1.40;;;12.10;99.90;;;12.25;87.28;100666.47;5198296;28;20079;-69
2022/05/30 05:52:54;;;;;;;3.60;1.40;;;12.10;99.90;;;12.31;87.40;100666.66;5208029;28;20414;-69
2022/05/30 05:55:27;;;;;;;4.43;2.22;;;12.10;99.90;;;12.33;87.21;100667.59;5208033;28;20164;-69
2022/05/30 05:57:59;;;;;;;3.92;1.83;;;12.20;99.90;;;12.33;86.34;100660.63;5208513;28;20053;-69
2022/05/30 06:00:32;;;;;;;3.33;1.52;;;12.20;99.90;;;12.38;86.56;100663.34;5208003;28;20052;-68
2022/05/30 06:03:04;;;;;;;2.53;1.35;;;12.20;99.90;;;12.47;86.06;100663.59;5208117;28;20478;-68
2022/05/30 06:05:40;;;;;;;2.42;1.50;;;12.30;99.90;;;12.54;86.23;100665.50;5207984;28;20053;-67
2022/05/30 06:08:12;;;;;;;4.03;1.63;;;12.30;99.90;;;12.61;85.82;100669.16;5207879;28;20064;-69
2022/05/30 06:13:31;;;;;;;2.92;1.73;;;12.50;99.90;;;12.69;84.85;100673.72;5199054;28;20054;-70
2022/05/30 06:16:07;;;;;;;3.40;1.75;;;12.50;99.90;;;12.72;83.86;100670.31;5202585;28;20056;-70
2022/05/30 06:18:39;;;;;;;3.70;1.63;;;12.60;99.90;;;12.75;83.79;100681.72;5192868;28;20053;-70
2022/05/30 06:21:12;;;;;;;5.30;1.80;;;12.60;99.90;;;12.81;83.93;100680.97;5187113;28;20410;-70
2022/05/30 06:23:46;;;;;;;3.55;1.88;;;12.60;99.90;;;12.82;83.90;100671.41;5187277;28;20061;-69
2022/05/30 06:26:18;;;;;;;5.20;2.40;;;12.60;99.90;;;12.84;83.39;100674.91;5187046;28;20142;-68
2022/05/30 06:28:50;;;;;;;3.35;1.60;;;12.60;99.90;;;12.87;82.92;100680.25;5186935;28;20053;-69
2022/05/30 06:31:25;;;;;;;5.75;2.05;;;12.70;99.90;;;12.87;82.95;100680.25;5187363;28;20056;-70
2022/05/30 06:34:01;;;;;;;3.20;1.80;;;12.70;99.90;;;12.93;82.84;100681.28;5187014;28;20056;-69
2022/05/30 06:36:36;;;;;;;3.65;1.85;;;12.70;99.90;;;12.96;82.40;100681.31;5186876;28;20431;-70
2022/05/30 06:39:08;;;;;;;;;;;12.80;99.90;;;13.00;82.70;100687.53;5187089;28;20363;-69
2022/05/30 06:41:42;;;;;;;5.05;2.03;;;12.80;99.90;;;13.00;81.68;100688.41;5186672;28;19925;-70
2022/05/30 06:44:14;;;;;;;6.20;2.25;;;12.80;99.90;;;13.00;81.05;100698.00;5186916;28;20049;-71
2022/05/30 06:46:46;;;;;;;4.75;2.20;;;12.80;99.90;;;13.00;80.45;100695.38;5186920;28;20077;-70
2022/05/30 06:49:18;;;;;;;8.02;2.22;;;12.80;99.90;;;12.97;80.26;100700.53;5186358;28;20046;-72
2022/05/30 06:51:52;;;;;;;5.18;2.28;;;12.80;99.90;;;13.02;80.45;100704.13;5186613;28;20049;-72
2022/05/30 06:54:24;;;;;;;4.43;1.85;;;12.80;99.90;;;13.06;80.25;100703.38;5186238;28;20133;-71
2022/05/30 06:59:45;;;;;;;4.15;2.15;;;12.90;99.90;;;13.23;79.89;100707.28;5186326;28;20089;-71
2022/05/30 07:02:17;;;;;;;4.90;2.03;;;13.00;99.90;;;13.33;79.73;100712.72;5185833;28;20046;-70
2022/05/30 07:04:49;;;;;;;7.03;2.92;;;13.10;99.90;;;13.42;79.63;100712.94;5186453;28;20049;-72
2022/05/30 07:07:23;;;;;;;5.68;2.80;;;13.20;99.90;;;13.41;79.12;100708.53;5186204;28;20050;-71
2022/05/30 07:09:55;;;;;;;5.55;2.03;;;13.20;99.90;;;13.40;79.13;100715.53;5185780;28;20049;-70
2022/05/30 07:12:27;;;;;;;3.53;2.10;;;13.20;99.90;;;13.43;78.97;100709.44;5186151;28;20481;-71
2022/05/30 07:14:59;;;;;;;3.00;2.10;;;13.20;99.90;;;13.48;78.54;100713.94;5185917;28;20046;-69
2022/05/30 07:17:31;;;;;;;3.58;1.75;;;13.30;99.90;;;13.59;78.57;100714.19;5186151;28;20458;-71
2022/05/30 07:20:04;;;;;;;5.60;2.15;;;13.30;99.90;;;13.72;78.95;100718.81;5185971;28;20071;-70
2022/05/30 07:22:37;;;;;;;9.23;3.00;;;13.50;99.90;;;13.81;78.62;100713.75;5185754;28;20050;-69
2022/05/30 07:25:10;;;;;;;3.95;2.10;;;13.60;99.90;;;13.92;78.35;100716.63;5186012;28;20046;-70
2022/05/30 07:27:42;;;;;;;4.30;1.80;;;13.60;99.90;;;14.00;77.67;100716.75;5185860;28;20406;-72
2022/05/30 07:30:16;;;;;;;2.75;1.85;;;13.70;99.90;;;14.07;77.63;100716.03;5184475;28;20411;-72
2022/05/30 07:32:48;;;;;;;6.30;2.60;;;13.80;99.90;;;14.12;77.05;100720.50;5193980;28;20136;-72
2022/05/30 07:35:20;;;;;;;2.72;1.83;;;13.80;99.90;;;14.16;76.49;100717.97;5205971;28;20049;-70
2022/05/30 07:37:53;;;;;;;5.93;2.47;;;13.90;99.90;;;14.12;75.92;100724.88;5205987;28;20056;-70
2022/05/30 07:40:25;;;;;;;6.82;2.70;;;13.80;99.90;;;14.01;75.29;100722.03;5198544;28;20045;-70
2022/05/30 07:42:57;;;;;;;5.88;2.42;;;13.80;99.90;;;13.89;75.10;100726.13;5197940;28;20056;-70
2022/05/30 07:45:30;;;;;;;5.45;2.28;;;13.80;99.90;;;13.87;75.02;100731.34;5206214;28;20045;-70
2022/05/30 07:48:02;;;;;;;3.47;2.10;;;13.70;99.90;;;13.85;74.53;100725.22;5205919;28;20331;-71
2022/05/30 07:50:36;;;;;;;4.60;1.90;;;13.70;99.90;;;13.83;74.58;100727.81;5195004;28;20057;-70
2022/05/30 07:53:09;;;;;;;4.47;1.88;;;13.70;99.90;;;13.80;74.66;100721.59;5204310;28;20501;-71
2022/05/30 07:55:41;;;;;;;3.38;1.77;;;13.70;99.90;;;13.75;74.93;100721.50;5205705;28;20046;-70
2022/05/30 07:58:13;;;;;;;2.90;1.85;;;13.60;99.90;;;13.74;75.38;100717.13;5205641;28;20479;-70
2022/05/30 08:00:45;;;;;;;4.43;1.88;;;13.60;99.90;;;13.76;75.12;100720.66;5206092;28;20052;-71
2022/05/30 08:03:18;;;;;;;3.33;2.00;;;13.60;99.90;;;13.77;74.95;100727.69;5203862;28;20057;-72
2022/05/30 08:05:50;;;;;;;3.58;2.20;;;13.60;99.90;;;13.78;75.05;100733.78;5192913;28;20055;-71
2022/05/30 08:08:23;;;;;;;2.20;1.63;;;13.60;99.90;;;13.76;75.04;100728.53;5194528;28;20049;-71
2022/05/30 08:10:55;;;;;;;3.80;1.88;;;13.60;99.90;;;13.74;74.68;100727.59;5201996;28;20049;-72
2022/05/30 08:13:27;;;;;;;3.28;2.00;;;13.50;99.90;;;13.72;74.84;100728.44;5200487;28;20046;-71
2022/05/30 08:16:00;;;;;;;3.83;1.83;;;13.50;99.90;;;13.65;74.39;100716.94;5192405;28;20121;-70
2022/05/30 08:18:33;;;;;;;2.22;1.58;;;13.50;99.90;;;13.61;74.53;100720.34;5185301;28;20137;-71
2022/05/30 08:21:06;;;;;;;4.55;1.90;;;13.40;99.90;;;13.60;75.18;100731.66;5185143;28;20060;-71
2022/05/30 08:23:39;;;;;;;4.97;1.73;;;13.40;99.90;;;13.57;75.69;100731.59;5187394;28;20056;-72
2022/05/30 08:26:13;;;;;;;3.72;1.58;;;13.40;99.90;;;13.54;76.73;100731.53;5204565;28;20053;-71
2022/05/30 08:28:46;;;;;;;3.58;1.90;;;13.40;99.90;;;13.54;76.90;100740.25;5205769;28;20095;-70
2022/05/30 08:31:18;;;;;;;2.85;1.67;;;13.40;99.90;;;13.54;77.26;100739.38;5200734;28;20091;-71
2022/05/30 08:33:50;;;;;;;3.67;1.80;;;13.40;99.90;;;13.54;77.40;100735.03;5189403;28;20068;-70
2022/05/30 08:36:22;;;;;;;3.17;1.75;;;13.40;99.90;;;13.57;77.54;100744.72;5182373;28;20050;-72
2022/05/30 08:41:46;;;;;;;3.72;1.92;;;13.40;99.90;;;13.59;77.87;100753.47;5193365;28;20137;-72
2022/05/30 08:41:46;;;;;;;4.25;2.15;;;13.40;99.90;;;13.61;77.89;100757.00;5188645;28;20046;-71
2022/05/30 08:44:19;;;;;;;3.88;1.70;;;13.40;99.90;;;13.65;78.04;100758.84;5192688;28;20041;-71
2022/05/30 08:46:58;;;;;;;4.72;1.83;;;13.40;99.90;;;13.67;77.14;100759.75;5193427;28;20050;-71
2022/05/30 08:49:36;;;;;;;3.65;1.90;;;13.50;99.90;;;13.68;76.87;100755.41;5184448;28;20506;-71
2022/05/30 08:52:46;;;;;;;5.90;2.13;;;13.50;99.90;;;13.70;76.94;100756.34;5180597;28;20503;-72
2022/05/30 08:55:29;;;;;;;5.03;2.20;;;13.50;99.90;;;13.71;77.29;100753.75;5185823;28;20271;-71
2022/05/30 08:58:11;;;;;;;4.97;2.40;;;13.50;99.90;;;13.73;77.21;100756.38;5205890;28;20456;-72
2022/05/30 09:00:51;;;;;;;3.53;2.13;;;13.50;99.90;;;13.68;77.31;100756.28;5193892;28;20546;-70
2022/05/30 09:03:31;;;;;;;6.40;3.40;;;13.50;99.90;;;13.67;77.10;100751.91;5185215;28;20060;-71
2022/05/30 09:06:09;;;;;;;4.45;2.28;;;13.50;99.90;;;13.68;77.00;100750.16;5185532;28;20057;-70
2022/05/30 09:08:49;;;;;;;5.68;2.05;;;13.50;99.90;;;13.63;76.16;100750.06;5185416;28;20074;-72
2022/05/30 09:11:33;;;;;;;6.72;2.00;;;13.40;99.90;;;13.63;76.28;100757.03;5185638;28;20795;-70
2022/05/30 09:14:12;;;;;;;3.47;1.95;;;13.40;99.90;;;13.67;76.21;100761.50;5185363;28;20073;-72
2022/05/30 09:16:52;;;;;;;4.63;1.95;;;13.50;99.90;;;13.67;75.08;100756.25;5185227;28;20053;-70
2022/05/30 09:19:25;;;;;;;4.25;1.88;;;13.40;99.90;;;13.69;74.52;100754.53;5184844;28;20054;-73
2022/05/30 09:22:01;;;;;;;3.22;1.63;;;13.50;99.90;;;13.74;74.53;100759.03;5184728;28;20057;-72
2022/05/30 09:24:36;;;;;;;5.05;1.63;;;13.50;99.90;;;13.76;73.93;100749.50;5185549;28;20057;-72
2022/05/30 09:27:12;;;;;;;3.55;1.67;;;13.50;99.90;;;13.81;73.67;100745.19;5188744;28;20045;-72
2022/05/30 09:29:54;;;;;;;3.95;1.92;;;13.60;99.90;;;13.86;73.09;100750.56;5188941;28;20159;-73
2022/05/30 09:32:38;;;;;;;4.82;1.63;;;13.60;99.90;;;13.94;72.41;100750.69;5188737;28;20133;-71
2022/05/30 09:35:26;;;;;;;4.07;2.05;;;13.70;99.90;;;14.04;71.89;100750.06;5188915;28;20053;-72
2022/05/30 09:38:09;;;;;;;2.90;1.58;;;13.80;99.90;;;14.10;71.53;100747.56;5188593;28;20131;-71
2022/05/30 09:40:45;;;;;;;5.80;1.85;;;13.80;99.90;;;14.23;71.18;100753.91;5188424;28;20050;-71
2022/05/30 09:43:28;;;;;;;5.97;1.92;;;13.90;99.90;;;14.26;69.81;100744.34;5188141;28;20467;-71
2022/05/30 09:46:20;;;;;;;4.13;2.00;;;14.00;99.90;;;14.32;69.23;100749.72;5188361;28;20076;-70
2022/05/30 09:49:06;;;;;;;6.10;2.40;;;14.00;99.90;;;14.44;68.47;100748.19;5188201;28;20414;-71
2022/05/30 09:51:43;;;;;;;2.78;1.92;;;14.10;99.90;;;14.59;66.96;100752.00;5188193;28;20054;-71
2022/05/30 09:54:33;;;;;;;3.85;1.88;;;14.20;99.90;;;14.77;66.35;100747.94;5188174;28;20160;-69
2022/05/30 09:57:09;;;;;;;3.00;1.75;;;14.40;99.90;;;15.16;65.39;100752.94;5187967;28;20053;-72
2022/05/30 09:59:45;;;;;;;7.32;2.70;;;14.70;99.90;;;15.38;60.70;100748.88;5188148;28;20058;-71
2022/05/30 10:02:24;;;;;;;6.78;2.20;;;14.90;98.50;;;15.49;58.02;100749.94;5188040;28;20494;-73
2022/05/30 10:04:59;;;;;;;5.35;2.22;;;15.10;96.40;;;15.65;57.65;100753.69;5187592;28;20092;-71
2022/05/30 10:07:33;;;;;;;2.53;1.90;;;15.20;96.10;;;15.97;56.07;100752.38;5188145;28;20491;-71
2022/05/30 10:10:20;;;;;;;4.93;2.13;;;15.40;94.90;;;16.60;55.38;100747.75;5187414;28;20053;-72
2022/05/30 10:12:57;;;;;;;7.00;2.85;;;15.80;94.70;;;17.05;53.26;100752.56;5187819;28;20053;-72
2022/05/30 10:15:34;;;;;;;6.85;2.72;;;16.30;93.20;;;17.12;52.07;100750.00;5187456;28;20126;-68
2022/05/30 10:18:28;;;;;;;5.32;2.25;;;16.40;91.40;;;17.38;53.41;100747.53;5187618;28;20056;-66
2022/05/30 10:21:15;;;;;;;4.68;2.08;;;16.70;92.20;;;17.66;51.08;100756.47;5187330;28;20428;-67
2022/05/30 10:30:09;;;;;;;3.83;2.08;;;17.60;86.70;;;19.00;48.06;100753.38;5173991;28;20506;-65
2022/05/30 10:32:53;;;;;;;6.82;2.55;;;18.10;85.00;;;19.28;45.45;100744.53;5185389;28;20510;-66
2022/05/30 10:35:33;;;;;;;4.25;1.98;;;18.40;80.70;;;19.61;45.04;100746.25;5185282;28;20627;-65
2022/05/30 10:38:23;;;;;;;6.85;2.20;;;18.70;78.40;;;19.77;44.94;100749.75;5185743;28;20050;-65
2022/05/30 10:41:06;;;;;;;3.15;2.00;;;18.90;77.50;;;19.66;45.29;100743.59;5186958;28;20050;-71
2022/05/30 10:43:56;;;;;;;2.72;1.70;;;18.90;77.20;;;19.37;46.64;100751.59;5188401;28;20410;-72
2022/05/30 10:46:40;;;;;;;4.05;2.03;;;18.80;78.50;;;19.13;46.91;100753.38;5191200;28;20057;-72
2022/05/30 10:49:20;;;;;;;2.38;1.45;;;18.60;78.70;;;18.91;46.83;100759.56;5186504;28;20066;-72
2022/05/30 10:51:59;;;;;;;5.32;1.85;;;18.40;78.20;;;18.64;47.52;100755.94;5186969;28;20054;-72
2022/05/30 10:54:38;;;;;;;3.40;1.60;;;18.20;78.40;;;18.37;47.79;100758.53;5186986;28;20056;-72
2022/05/30 10:57:19;;;;;;;3.20;1.77;;;18.00;79.00;;;18.13;47.34;100752.34;5186750;28;20050;-70
2022/05/30 10:59:53;;;;;;;;;;;17.70;78.10;;;17.94;48.60;100761.06;5186454;28;20060;-70
2022/05/30 11:02:29;;;;;;;;;;;17.50;79.40;;;17.70;49.30;100761.78;5186501;28;19921;-70
2022/05/30 11:05:12;;;;;;;5.53;2.08;;;17.30;80.20;;;17.52;50.45;100761.66;5186164;28;19921;-69